Flight Track Log - Related Links

Times and Time Zones

All times are in EDT time to prevent confusion due to time zone crossing. See the CPT8555 flight status page for this flight to view local times or setup timezone preferences in your user account.

Time Position Orientation Groundspeed Altitude Reporting Facility
EDT Latitude Longitude Course Direction KTS MPH feet Rate Location/Type
Sat 10:49:10 AM 46.7733 -100.9181 275° West 145 167 4,600  Level Minneapolis Center
Sat 10:50:11 AM 46.7800 -100.9844 278° West 162 186 4,600  Level Minneapolis Center
Sat 10:51:12 AM 46.7839 -101.0500 275° West 160 184 4,600  Level Minneapolis Center
Sat 10:52:00 AM 46.7667 -101.0249 270° West  Level FlightAware Approximate
Sat 10:52:13 AM 46.7864 -101.1144 273° West 157 181 4,600  Level Minneapolis Center
Sat 10:53:00 AM 46.7685 -101.0733 276° West  Level FlightAware Approximate
Sat 10:53:14 AM 46.7894 -101.1794 274° West 158 182 4,600  Level Minneapolis Center
Sat 10:54:16 AM 46.7928 -101.2431 274° West 155 178 4,600  Level Minneapolis Center
Sat 10:55:17 AM 46.7958 -101.3069 274° West 156 180 4,600  Level Minneapolis Center
Sat 10:56:18 AM 46.7989 -101.3717 274° West 157 181 4,600  Level Minneapolis Center
Sat 10:57:19 AM 46.8025 -101.4372 275° West 158 182 4,600  Level Minneapolis Center
Sat 10:58:20 AM 46.8053 -101.5019 274° West 157 181 4,600  Level Minneapolis Center
Sat 10:59:22 AM 46.8081 -101.5669 274° West 157 181 4,600  Level Minneapolis Center
Sat 11:00:23 AM 46.8114 -101.6311 274° West 157 181 4,600 -49 Level Minneapolis Center
Sat 11:01:25 AM 46.8147 -101.6953 274° West 156 180 4,500 -49 Descending Minneapolis Center
Sat 11:02:26 AM 46.8169 -101.7606 273° West 158 182 4,500  Level Minneapolis Center
Sat 11:03:27 AM 46.8214 -101.8247 276° West 157 181 4,500  Level Minneapolis Center
Sat 11:04:28 AM 46.8247 -101.8872 274° West 154 177 4,500  Level Minneapolis Center
Sat 11:05:29 AM 46.8281 -101.9411 275° West 152 175 4,500  Level Minneapolis Center
Sat 11:07:00 AM 46.8291 -102.0185 271° West  Level FlightAware Approximate
Sat 11:14:00 AM 46.8331 -102.3758 271° West  Level FlightAware Approximate
Sat 11:15:00 AM 46.8356 -102.4268 277° West  Level FlightAware Approximate
Sat 11:16:00 AM 46.8398 -102.4775 277° West  Level FlightAware Approximate
Sat 11:17:00 AM 46.8441 -102.5282 277° West  Level FlightAware Approximate
Sat 11:18:00 AM 46.8483 -102.5788 277° West  Level FlightAware Approximate
Sat 11:19:00 AM 46.8333 -102.6169 250° West  Level FlightAware Approximate
Sat 11:20:00 AM 46.8213 -102.6648 250° West  Level FlightAware Approximate
Sat 11:21:00 AM 46.8084 -102.7122 247° West  Level FlightAware Approximate
Sat 11:22:00 AM 46.7950 -102.7593 247° West  Level FlightAware Approximate
Sat 11:23:00 AM 46.7833 -102.8000 247° West  Level FlightAware Approximate
Sat 11:24:00 AM 46.7973 -102.8019 247° West  Level Estimated
Sat 11:25:00 AM 46.7973 -102.8019 247° West  Level Estimated
Sat 11:26:00 AM 46.7973 -102.8019 247° West  Level Estimated

Login

Don't have an account? Register now (free) for customized features, flight alerts, and more!